sensor_id;sensor_type;location;lat;lon;timestamp;P1;durP1;ratioP1;P2;durP2;ratioP2
69744;SDS011;57015;50.120;-5.168;2023-04-12T00:00:29;8.57;;;1.57;;
69744;SDS011;57015;50.120;-5.168;2023-04-12T00:02:55;11.98;;;1.00;;
69744;SDS011;57015;50.120;-5.168;2023-04-12T00:05:23;7.72;;;1.10;;
69744;SDS011;57015;50.120;-5.168;2023-04-12T00:07:51;13.82;;;1.63;;
69744;SDS011;57015;50.120;-5.168;2023-04-12T00:10:19;11.43;;;0.97;;
69744;SDS011;57015;50.120;-5.168;2023-04-12T00:12:44;10.43;;;0.80;;
69744;SDS011;57015;50.120;-5.168;2023-04-12T00:15:10;9.20;;;0.77;;
69744;SDS011;57015;50.120;-5.168;2023-04-12T00:17:36;7.13;;;0.73;;
69744;SDS011;57015;50.120;-5.168;2023-04-12T00:20:02;5.83;;;0.47;;
69744;SDS011;57015;50.120;-5.168;2023-04-12T00:22:30;11.30;;;0.63;;
69744;SDS011;57015;50.120;-5.168;2023-04-12T00:24:55;3.42;;;0.30;;
69744;SDS011;57015;50.120;-5.168;2023-04-12T00:27:20;3.83;;;0.45;;
69744;SDS011;57015;50.120;-5.168;2023-04-12T00:29:46;4.30;;;0.20;;
69744;SDS011;57015;50.120;-5.168;2023-04-12T00:32:11;4.20;;;0.50;;
69744;SDS011;57015;50.120;-5.168;2023-04-12T00:34:36;6.27;;;0.30;;
69744;SDS011;57015;50.120;-5.168;2023-04-12T00:37:02;5.80;;;0.20;;
69744;SDS011;57015;50.120;-5.168;2023-04-12T00:39:27;4.47;;;0.30;;
69744;SDS011;57015;50.120;-5.168;2023-04-12T00:41:53;3.05;;;0.30;;
69744;SDS011;57015;50.120;-5.168;2023-04-12T00:44:21;4.97;;;0.63;;
69744;SDS011;57015;50.120;-5.168;2023-04-12T00:46:46;6.10;;;0.82;;
69744;SDS011;57015;50.120;-5.168;2023-04-12T00:49:12;12.73;;;1.47;;
69744;SDS011;57015;50.120;-5.168;2023-04-12T00:51:38;11.00;;;1.55;;
69744;SDS011;57015;50.120;-5.168;2023-04-12T00:54:04;6.55;;;0.57;;
69744;SDS011;57015;50.120;-5.168;2023-04-12T00:56:30;4.30;;;1.17;;
69744;SDS011;57015;50.120;-5.168;2023-04-12T00:58:56;5.07;;;0.70;;
69744;SDS011;57015;50.120;-5.168;2023-04-12T01:01:22;7.75;;;0.50;;
69744;SDS011;57015;50.120;-5.168;2023-04-12T01:03:48;7.80;;;0.57;;
69744;SDS011;57015;50.120;-5.168;2023-04-12T01:11:55;12.52;;;1.95;;
69744;SDS011;57015;50.120;-5.168;2023-04-12T01:17:25;7.03;;;0.75;;
69744;SDS011;57015;50.120;-5.168;2023-04-12T01:20:12;7.40;;;1.02;;
69744;SDS011;57015;50.120;-5.168;2023-04-12T01:28:04;8.43;;;2.15;;
69744;SDS011;57015;50.120;-5.168;2023-04-12T01:30:31;6.75;;;0.60;;
69744;SDS011;57015;50.120;-5.168;2023-04-12T01:32:58;6.70;;;0.90;;
69744;SDS011;57015;50.120;-5.168;2023-04-12T01:35:30;5.03;;;0.70;;
69744;SDS011;57015;50.120;-5.168;2023-04-12T01:37:56;8.60;;;0.75;;
69744;SDS011;57015;50.120;-5.168;2023-04-12T01:40:22;6.20;;;0.60;;
69744;SDS011;57015;50.120;-5.168;2023-04-12T01:42:48;12.87;;;1.03;;
69744;SDS011;57015;50.120;-5.168;2023-04-12T01:45:14;6.18;;;0.70;;
69744;SDS011;57015;50.120;-5.168;2023-04-12T01:47:39;5.93;;;0.80;;
69744;SDS011;57015;50.120;-5.168;2023-04-12T01:50:11;5.10;;;0.50;;
69744;SDS011;57015;50.120;-5.168;2023-04-12T01:52:46;5.57;;;0.50;;
69744;SDS011;57015;50.120;-5.168;2023-04-12T01:55:16;5.33;;;0.50;;
69744;SDS011;57015;50.120;-5.168;2023-04-12T01:57:45;9.13;;;0.75;;
69744;SDS011;57015;50.120;-5.168;2023-04-12T02:00:12;7.97;;;0.85;;
69744;SDS011;57015;50.120;-5.168;2023-04-12T02:02:38;4.82;;;0.40;;
69744;SDS011;57015;50.120;-5.168;2023-04-12T02:05:03;5.17;;;0.20;;
69744;SDS011;57015;50.120;-5.168;2023-04-12T02:07:32;5.78;;;0.50;;
69744;SDS011;57015;50.120;-5.168;2023-04-12T02:09:58;6.60;;;0.82;;
69744;SDS011;57015;50.120;-5.168;2023-04-12T02:12:23;7.63;;;0.50;;
69744;SDS011;57015;50.120;-5.168;2023-04-12T02:14:48;9.30;;;0.67;;
69744;SDS011;57015;50.120;-5.168;2023-04-12T02:17:16;7.90;;;0.57;;
69744;SDS011;57015;50.120;-5.168;2023-04-12T02:19:42;10.40;;;0.97;;
69744;SDS011;57015;50.120;-5.168;2023-04-12T02:22:07;10.15;;;0.77;;
69744;SDS011;57015;50.120;-5.168;2023-04-12T02:24:32;6.25;;;0.52;;
69744;SDS011;57015;50.120;-5.168;2023-04-12T02:26:58;10.50;;;1.17;;
69744;SDS011;57015;50.120;-5.168;2023-04-12T02:29:23;11.53;;;0.70;;
69744;SDS011;57015;50.120;-5.168;2023-04-12T02:31:48;7.83;;;0.67;;
69744;SDS011;57015;50.120;-5.168;2023-04-12T02:34:15;11.05;;;1.10;;
69744;SDS011;57015;50.120;-5.168;2023-04-12T02:36:45;9.25;;;1.27;;
69744;SDS011;57015;50.120;-5.168;2023-04-12T02:39:11;12.27;;;0.63;;
69744;SDS011;57015;50.120;-5.168;2023-04-12T02:41:36;8.40;;;1.13;;
69744;SDS011;57015;50.120;-5.168;2023-04-12T02:44:01;7.57;;;0.80;;
69744;SDS011;57015;50.120;-5.168;2023-04-12T02:46:27;5.73;;;0.80;;
69744;SDS011;57015;50.120;-5.168;2023-04-12T02:48:52;6.13;;;0.77;;
69744;SDS011;57015;50.120;-5.168;2023-04-12T02:51:18;12.37;;;1.00;;
69744;SDS011;57015;50.120;-5.168;2023-04-12T02:53:43;7.78;;;1.00;;
69744;SDS011;57015;50.120;-5.168;2023-04-12T02:56:09;10.65;;;1.10;;
69744;SDS011;57015;50.120;-5.168;2023-04-12T02:58:35;10.43;;;1.07;;
69744;SDS011;57015;50.120;-5.168;2023-04-12T03:01:01;7.65;;;1.10;;
69744;SDS011;57015;50.120;-5.168;2023-04-12T03:03:26;6.28;;;0.90;;
69744;SDS011;57015;50.120;-5.168;2023-04-12T03:05:55;8.43;;;1.43;;
69744;SDS011;57015;50.120;-5.168;2023-04-12T03:08:22;5.38;;;0.52;;
69744;SDS011;57015;50.120;-5.168;2023-04-12T03:10:47;7.45;;;0.70;;
69744;SDS011;57015;50.120;-5.168;2023-04-12T03:13:13;8.23;;;0.90;;
69744;SDS011;57015;50.120;-5.168;2023-04-12T03:15:38;6.20;;;0.80;;
69744;SDS011;57015;50.120;-5.168;2023-04-12T03:18:04;12.77;;;0.80;;
69744;SDS011;57015;50.120;-5.168;2023-04-12T03:20:29;3.67;;;0.50;;
69744;SDS011;57015;50.120;-5.168;2023-04-12T03:22:54;4.93;;;1.10;;
69744;SDS011;57015;50.120;-5.168;2023-04-12T03:25:20;6.83;;;0.60;;
69744;SDS011;57015;50.120;-5.168;2023-04-12T03:27:45;13.33;;;0.67;;
69744;SDS011;57015;50.120;-5.168;2023-04-12T03:30:11;11.25;;;0.73;;
69744;SDS011;57015;50.120;-5.168;2023-04-12T03:32:37;12.00;;;1.53;;
69744;SDS011;57015;50.120;-5.168;2023-04-12T03:35:03;6.38;;;0.90;;
69744;SDS011;57015;50.120;-5.168;2023-04-12T03:37:29;7.63;;;0.80;;
69744;SDS011;57015;50.120;-5.168;2023-04-12T03:39:54;6.55;;;0.85;;
69744;SDS011;57015;50.120;-5.168;2023-04-12T03:42:20;8.02;;;0.35;;
69744;SDS011;57015;50.120;-5.168;2023-04-12T03:44:45;9.43;;;0.60;;
69744;SDS011;57015;50.120;-5.168;2023-04-12T03:47:12;7.15;;;0.38;;
69744;SDS011;57015;50.120;-5.168;2023-04-12T03:49:37;4.63;;;0.30;;
69744;SDS011;57015;50.120;-5.168;2023-04-12T03:52:04;4.90;;;0.57;;
69744;SDS011;57015;50.120;-5.168;2023-04-12T03:54:30;8.48;;;0.90;;
69744;SDS011;57015;50.120;-5.168;2023-04-12T03:56:55;8.30;;;0.80;;
69744;SDS011;57015;50.120;-5.168;2023-04-12T03:59:20;3.67;;;0.20;;
69744;SDS011;57015;50.120;-5.168;2023-04-12T04:01:46;6.47;;;0.82;;
69744;SDS011;57015;50.120;-5.168;2023-04-12T04:04:12;5.63;;;0.57;;
69744;SDS011;57015;50.120;-5.168;2023-04-12T04:06:37;10.07;;;0.70;;
69744;SDS011;57015;50.120;-5.168;2023-04-12T04:09:03;9.50;;;0.93;;
69744;SDS011;57015;50.120;-5.168;2023-04-12T04:11:28;7.47;;;0.53;;
69744;SDS011;57015;50.120;-5.168;2023-04-12T04:13:55;8.05;;;0.60;;
69744;SDS011;57015;50.120;-5.168;2023-04-12T04:16:20;2.75;;;0.30;;
69744;SDS011;57015;50.120;-5.168;2023-04-12T04:18:46;5.20;;;0.90;;
69744;SDS011;57015;50.120;-5.168;2023-04-12T04:21:11;4.10;;;0.40;;
69744;SDS011;57015;50.120;-5.168;2023-04-12T04:23:38;9.43;;;0.80;;
69744;SDS011;57015;50.120;-5.168;2023-04-12T04:26:07;3.70;;;0.50;;
69744;SDS011;57015;50.120;-5.168;2023-04-12T04:28:39;6.32;;;0.85;;
69744;SDS011;57015;50.120;-5.168;2023-04-12T04:31:09;7.80;;;0.50;;
69744;SDS011;57015;50.120;-5.168;2023-04-12T04:33:35;6.37;;;0.60;;
69744;SDS011;57015;50.120;-5.168;2023-04-12T04:36:01;8.90;;;0.82;;
69744;SDS011;57015;50.120;-5.168;2023-04-12T04:38:30;7.28;;;0.93;;
69744;SDS011;57015;50.120;-5.168;2023-04-12T04:41:00;7.00;;;0.40;;
69744;SDS011;57015;50.120;-5.168;2023-04-12T04:43:29;14.90;;;1.08;;
69744;SDS011;57015;50.120;-5.168;2023-04-12T04:45:58;8.53;;;0.50;;
69744;SDS011;57015;50.120;-5.168;2023-04-12T04:48:24;5.03;;;0.55;;
69744;SDS011;57015;50.120;-5.168;2023-04-12T04:50:50;6.93;;;0.70;;
69744;SDS011;57015;50.120;-5.168;2023-04-12T04:53:17;10.93;;;0.70;;
69744;SDS011;57015;50.120;-5.168;2023-04-12T04:55:43;10.20;;;0.80;;
69744;SDS011;57015;50.120;-5.168;2023-04-12T04:58:08;7.33;;;0.93;;
69744;SDS011;57015;50.120;-5.168;2023-04-12T05:00:34;3.77;;;0.60;;
69744;SDS011;57015;50.120;-5.168;2023-04-12T05:03:00;8.32;;;0.80;;
69744;SDS011;57015;50.120;-5.168;2023-04-12T05:05:27;4.20;;;0.82;;
69744;SDS011;57015;50.120;-5.168;2023-04-12T05:07:52;7.32;;;0.90;;
69744;SDS011;57015;50.120;-5.168;2023-04-12T05:10:19;6.97;;;0.93;;
69744;SDS011;57015;50.120;-5.168;2023-04-12T05:12:44;8.93;;;0.90;;
69744;SDS011;57015;50.120;-5.168;2023-04-12T05:15:10;10.47;;;1.07;;
69744;SDS011;57015;50.120;-5.168;2023-04-12T05:17:35;7.17;;;1.03;;
69744;SDS011;57015;50.120;-5.168;2023-04-12T05:20:01;11.63;;;0.80;;
69744;SDS011;57015;50.120;-5.168;2023-04-12T05:22:27;13.18;;;1.85;;
69744;SDS011;57015;50.120;-5.168;2023-04-12T05:24:53;8.15;;;0.70;;
69744;SDS011;57015;50.120;-5.168;2023-04-12T05:27:19;3.67;;;0.60;;
69744;SDS011;57015;50.120;-5.168;2023-04-12T05:29:45;5.67;;;0.43;;
69744;SDS011;57015;50.120;-5.168;2023-04-12T05:32:11;8.85;;;0.93;;
69744;SDS011;57015;50.120;-5.168;2023-04-12T05:34:36;12.57;;;1.77;;
69744;SDS011;57015;50.120;-5.168;2023-04-12T05:37:02;10.00;;;0.97;;
69744;SDS011;57015;50.120;-5.168;2023-04-12T05:39:28;8.88;;;1.00;;
69744;SDS011;57015;50.120;-5.168;2023-04-12T05:41:53;10.73;;;0.73;;
69744;SDS011;57015;50.120;-5.168;2023-04-12T05:44:18;7.83;;;1.30;;
69744;SDS011;57015;50.120;-5.168;2023-04-12T05:46:44;5.63;;;1.40;;
69744;SDS011;57015;50.120;-5.168;2023-04-12T05:49:09;4.13;;;0.40;;
69744;SDS011;57015;50.120;-5.168;2023-04-12T05:51:34;14.23;;;1.25;;
69744;SDS011;57015;50.120;-5.168;2023-04-12T05:54:00;10.32;;;1.38;;
69744;SDS011;57015;50.120;-5.168;2023-04-12T05:56:25;13.20;;;1.13;;
69744;SDS011;57015;50.120;-5.168;2023-04-12T05:58:51;10.87;;;1.40;;
69744;SDS011;57015;50.120;-5.168;2023-04-12T06:01:17;6.32;;;0.55;;
69744;SDS011;57015;50.120;-5.168;2023-04-12T06:03:44;9.23;;;0.77;;
69744;SDS011;57015;50.120;-5.168;2023-04-12T06:06:10;9.50;;;0.93;;
69744;SDS011;57015;50.120;-5.168;2023-04-12T06:08:36;9.35;;;0.88;;
69744;SDS011;57015;50.120;-5.168;2023-04-12T06:11:02;11.40;;;0.67;;
69744;SDS011;57015;50.120;-5.168;2023-04-12T06:13:28;7.13;;;1.10;;
69744;SDS011;57015;50.120;-5.168;2023-04-12T06:15:54;14.60;;;1.10;;
69744;SDS011;57015;50.120;-5.168;2023-04-12T06:18:19;13.05;;;1.38;;
69744;SDS011;57015;50.120;-5.168;2023-04-12T06:20:44;13.55;;;1.33;;
69744;SDS011;57015;50.120;-5.168;2023-04-12T06:23:10;7.80;;;1.60;;
69744;SDS011;57015;50.120;-5.168;2023-04-12T06:25:36;9.13;;;1.00;;
69744;SDS011;57015;50.120;-5.168;2023-04-12T06:28:01;13.90;;;1.95;;
69744;SDS011;57015;50.120;-5.168;2023-04-12T06:30:27;14.37;;;0.70;;
69744;SDS011;57015;50.120;-5.168;2023-04-12T06:32:52;13.73;;;1.20;;
69744;SDS011;57015;50.120;-5.168;2023-04-12T06:35:17;14.03;;;1.00;;
69744;SDS011;57015;50.120;-5.168;2023-04-12T06:37:44;9.45;;;1.60;;
69744;SDS011;57015;50.120;-5.168;2023-04-12T06:40:09;7.13;;;1.30;;
69744;SDS011;57015;50.120;-5.168;2023-04-12T06:42:36;12.43;;;1.60;;
69744;SDS011;57015;50.120;-5.168;2023-04-12T06:45:02;22.63;;;1.20;;
69744;SDS011;57015;50.120;-5.168;2023-04-12T06:47:28;12.52;;;1.98;;
69744;SDS011;57015;50.120;-5.168;2023-04-12T06:49:54;9.25;;;1.10;;
69744;SDS011;57015;50.120;-5.168;2023-04-12T06:52:25;10.13;;;1.60;;
69744;SDS011;57015;50.120;-5.168;2023-04-12T06:54:50;11.25;;;1.13;;
69744;SDS011;57015;50.120;-5.168;2023-04-12T06:57:16;16.42;;;2.03;;
69744;SDS011;57015;50.120;-5.168;2023-04-12T06:59:41;11.57;;;0.80;;
69744;SDS011;57015;50.120;-5.168;2023-04-12T07:02:07;10.10;;;1.10;;
69744;SDS011;57015;50.120;-5.168;2023-04-12T07:04:32;16.53;;;1.47;;
69744;SDS011;57015;50.120;-5.168;2023-04-12T07:06:57;12.70;;;0.93;;
69744;SDS011;57015;50.120;-5.168;2023-04-12T07:09:23;13.10;;;1.10;;
69744;SDS011;57015;50.120;-5.168;2023-04-12T07:11:48;4.88;;;1.10;;
69744;SDS011;57015;50.120;-5.168;2023-04-12T07:14:14;12.97;;;1.67;;
69744;SDS011;57015;50.120;-5.168;2023-04-12T07:16:41;12.55;;;1.55;;
69744;SDS011;57015;50.120;-5.168;2023-04-12T07:19:06;15.60;;;1.90;;
69744;SDS011;57015;50.120;-5.168;2023-04-12T07:21:32;13.02;;;0.85;;
69744;SDS011;57015;50.120;-5.168;2023-04-12T07:23:57;9.53;;;1.67;;
69744;SDS011;57015;50.120;-5.168;2023-04-12T07:26:23;13.43;;;1.33;;
69744;SDS011;57015;50.120;-5.168;2023-04-12T07:28:48;11.37;;;1.17;;
69744;SDS011;57015;50.120;-5.168;2023-04-12T07:31:14;16.20;;;2.10;;
69744;SDS011;57015;50.120;-5.168;2023-04-12T07:33:39;13.77;;;1.53;;
69744;SDS011;57015;50.120;-5.168;2023-04-12T07:36:05;11.83;;;1.07;;
69744;SDS011;57015;50.120;-5.168;2023-04-12T07:38:31;15.43;;;1.65;;
69744;SDS011;57015;50.120;-5.168;2023-04-12T07:40:56;13.40;;;1.33;;
69744;SDS011;57015;50.120;-5.168;2023-04-12T07:43:21;12.13;;;1.00;;
69744;SDS011;57015;50.120;-5.168;2023-04-12T07:45:47;13.27;;;1.30;;
69744;SDS011;57015;50.120;-5.168;2023-04-12T07:48:13;16.80;;;1.10;;
69744;SDS011;57015;50.120;-5.168;2023-04-12T07:50:38;13.73;;;1.30;;
69744;SDS011;57015;50.120;-5.168;2023-04-12T07:53:17;13.10;;;1.65;;
69744;SDS011;57015;50.120;-5.168;2023-04-12T07:55:46;13.73;;;1.33;;
69744;SDS011;57015;50.120;-5.168;2023-04-12T07:58:12;10.10;;;1.00;;
69744;SDS011;57015;50.120;-5.168;2023-04-12T08:00:37;8.35;;;1.00;;
69744;SDS011;57015;50.120;-5.168;2023-04-12T08:03:03;14.27;;;1.83;;
69744;SDS011;57015;50.120;-5.168;2023-04-12T08:05:28;17.23;;;1.33;;
69744;SDS011;57015;50.120;-5.168;2023-04-12T08:07:53;27.37;;;2.90;;
69744;SDS011;57015;50.120;-5.168;2023-04-12T08:10:20;18.58;;;1.63;;
69744;SDS011;57015;50.120;-5.168;2023-04-12T08:12:45;14.87;;;1.63;;
69744;SDS011;57015;50.120;-5.168;2023-04-12T08:15:12;12.77;;;1.90;;
69744;SDS011;57015;50.120;-5.168;2023-04-12T08:17:37;14.93;;;1.80;;
69744;SDS011;57015;50.120;-5.168;2023-04-12T08:20:03;17.77;;;1.73;;
69744;SDS011;57015;50.120;-5.168;2023-04-12T08:22:32;14.73;;;2.03;;
69744;SDS011;57015;50.120;-5.168;2023-04-12T08:24:57;24.30;;;2.75;;
69744;SDS011;57015;50.120;-5.168;2023-04-12T08:27:22;16.93;;;1.57;;
69744;SDS011;57015;50.120;-5.168;2023-04-12T08:29:48;14.63;;;2.63;;
69744;SDS011;57015;50.120;-5.168;2023-04-12T08:32:13;14.17;;;1.70;;
69744;SDS011;57015;50.120;-5.168;2023-04-12T08:34:39;15.53;;;1.90;;
69744;SDS011;57015;50.120;-5.168;2023-04-12T08:37:04;20.53;;;2.07;;
69744;SDS011;57015;50.120;-5.168;2023-04-12T08:39:30;28.77;;;2.87;;
69744;SDS011;57015;50.120;-5.168;2023-04-12T08:41:56;21.73;;;3.25;;
69744;SDS011;57015;50.120;-5.168;2023-04-12T08:44:43;18.57;;;2.33;;
69744;SDS011;57015;50.120;-5.168;2023-04-12T08:47:08;12.23;;;1.55;;
69744;SDS011;57015;50.120;-5.168;2023-04-12T08:49:33;21.13;;;2.38;;
69744;SDS011;57015;50.120;-5.168;2023-04-12T08:51:59;14.10;;;1.63;;
69744;SDS011;57015;50.120;-5.168;2023-04-12T08:54:29;18.25;;;2.80;;
69744;SDS011;57015;50.120;-5.168;2023-04-12T08:56:55;13.38;;;2.08;;
69744;SDS011;57015;50.120;-5.168;2023-04-12T08:59:25;20.97;;;2.57;;
69744;SDS011;57015;50.120;-5.168;2023-04-12T09:01:52;14.65;;;2.75;;
69744;SDS011;57015;50.120;-5.168;2023-04-12T09:04:18;21.25;;;3.50;;
69744;SDS011;57015;50.120;-5.168;2023-04-12T09:06:43;16.13;;;2.23;;
69744;SDS011;57015;50.120;-5.168;2023-04-12T09:09:09;20.60;;;2.47;;
69744;SDS011;57015;50.120;-5.168;2023-04-12T09:11:35;18.98;;;3.08;;
69744;SDS011;57015;50.120;-5.168;2023-04-12T09:14:00;12.30;;;1.90;;
69744;SDS011;57015;50.120;-5.168;2023-04-12T09:16:36;22.13;;;2.45;;
69744;SDS011;57015;50.120;-5.168;2023-04-12T09:19:02;21.10;;;2.10;;
69744;SDS011;57015;50.120;-5.168;2023-04-12T09:21:27;15.32;;;2.20;;
69744;SDS011;57015;50.120;-5.168;2023-04-12T09:24:04;15.53;;;1.80;;
69744;SDS011;57015;50.120;-5.168;2023-04-12T09:26:33;18.58;;;2.28;;
69744;SDS011;57015;50.120;-5.168;2023-04-12T09:29:02;13.32;;;1.73;;
69744;SDS011;57015;50.120;-5.168;2023-04-12T09:31:28;13.95;;;1.55;;
69744;SDS011;57015;50.120;-5.168;2023-04-12T09:34:06;17.70;;;2.40;;
69744;SDS011;57015;50.120;-5.168;2023-04-12T09:36:36;23.38;;;2.67;;
69744;SDS011;57015;50.120;-5.168;2023-04-12T09:39:05;16.52;;;2.25;;
69744;SDS011;57015;50.120;-5.168;2023-04-12T09:41:31;21.38;;;2.95;;
69744;SDS011;57015;50.120;-5.168;2023-04-12T09:43:58;18.88;;;2.08;;
69744;SDS011;57015;50.120;-5.168;2023-04-12T09:46:23;20.93;;;3.70;;
69744;SDS011;57015;50.120;-5.168;2023-04-12T09:48:50;19.92;;;1.90;;
69744;SDS011;57015;50.120;-5.168;2023-04-12T09:51:23;12.93;;;1.63;;
69744;SDS011;57015;50.120;-5.168;2023-04-12T09:53:51;8.38;;;1.17;;
69744;SDS011;57015;50.120;-5.168;2023-04-12T09:56:16;14.48;;;1.70;;
69744;SDS011;57015;50.120;-5.168;2023-04-12T09:58:44;16.73;;;1.33;;
69744;SDS011;57015;50.120;-5.168;2023-04-12T10:01:10;13.07;;;1.63;;
69744;SDS011;57015;50.120;-5.168;2023-04-12T10:03:36;18.35;;;1.73;;
69744;SDS011;57015;50.120;-5.168;2023-04-12T10:06:02;15.45;;;2.08;;
69744;SDS011;57015;50.120;-5.168;2023-04-12T10:08:29;14.27;;;2.17;;
69744;SDS011;57015;50.120;-5.168;2023-04-12T10:10:55;16.02;;;2.20;;
69744;SDS011;57015;50.120;-5.168;2023-04-12T10:13:21;20.52;;;2.70;;
69744;SDS011;57015;50.120;-5.168;2023-04-12T10:15:48;19.70;;;2.65;;
69744;SDS011;57015;50.120;-5.168;2023-04-12T10:18:15;21.97;;;3.00;;
69744;SDS011;57015;50.120;-5.168;2023-04-12T10:20:42;9.80;;;1.40;;
69744;SDS011;57015;50.120;-5.168;2023-04-12T10:23:08;3.97;;;0.30;;
69744;SDS011;57015;50.120;-5.168;2023-04-12T10:25:38;1.80;;;0.20;;
69744;SDS011;57015;50.120;-5.168;2023-04-12T10:28:17;3.47;;;0.30;;
69744;SDS011;57015;50.120;-5.168;2023-04-12T10:30:43;1.93;;;0.10;;
69744;SDS011;57015;50.120;-5.168;2023-04-12T10:33:12;3.60;;;0.50;;
69744;SDS011;57015;50.120;-5.168;2023-04-12T10:38:19;6.25;;;0.75;;
69744;SDS011;57015;50.120;-5.168;2023-04-12T10:41:05;6.63;;;0.70;;
69744;SDS011;57015;50.120;-5.168;2023-04-12T10:43:46;11.90;;;0.68;;
69744;SDS011;57015;50.120;-5.168;2023-04-12T10:49:00;8.55;;;1.20;;
69744;SDS011;57015;50.120;-5.168;2023-04-12T10:51:32;11.07;;;0.80;;
69744;SDS011;57015;50.120;-5.168;2023-04-12T10:56:34;10.98;;;1.27;;
69744;SDS011;57015;50.120;-5.168;2023-04-12T10:59:01;10.70;;;0.80;;
69744;SDS011;57015;50.120;-5.168;2023-04-12T11:01:27;6.95;;;0.70;;
69744;SDS011;57015;50.120;-5.168;2023-04-12T11:06:39;12.90;;;1.50;;
69744;SDS011;57015;50.120;-5.168;2023-04-12T11:09:20;15.68;;;1.13;;
69744;SDS011;57015;50.120;-5.168;2023-04-12T11:11:50;12.23;;;1.40;;
69744;SDS011;57015;50.120;-5.168;2023-04-12T11:14:24;12.07;;;1.73;;
69744;SDS011;57015;50.120;-5.168;2023-04-12T11:19:36;15.57;;;1.33;;
69744;SDS011;57015;50.120;-5.168;2023-04-12T11:22:03;8.82;;;0.88;;
69744;SDS011;57015;50.120;-5.168;2023-04-12T11:24:29;11.00;;;1.45;;
69744;SDS011;57015;50.120;-5.168;2023-04-12T11:26:55;10.95;;;1.88;;
69744;SDS011;57015;50.120;-5.168;2023-04-12T11:29:24;12.33;;;1.23;;
69744;SDS011;57015;50.120;-5.168;2023-04-12T11:31:50;19.52;;;2.15;;
69744;SDS011;57015;50.120;-5.168;2023-04-12T11:34:16;18.13;;;2.87;;
69744;SDS011;57015;50.120;-5.168;2023-04-12T11:36:43;19.55;;;2.67;;
69744;SDS011;57015;50.120;-5.168;2023-04-12T11:39:09;27.15;;;2.67;;
69744;SDS011;57015;50.120;-5.168;2023-04-12T11:41:35;15.60;;;2.07;;
69744;SDS011;57015;50.120;-5.168;2023-04-12T11:44:00;19.10;;;1.93;;
69744;SDS011;57015;50.120;-5.168;2023-04-12T11:46:31;22.10;;;2.43;;
69744;SDS011;57015;50.120;-5.168;2023-04-12T11:48:57;13.25;;;1.67;;
69744;SDS011;57015;50.120;-5.168;2023-04-12T11:51:23;13.98;;;2.05;;
69744;SDS011;57015;50.120;-5.168;2023-04-12T11:53:52;22.88;;;2.38;;
69744;SDS011;57015;50.120;-5.168;2023-04-12T11:56:18;21.15;;;2.25;;
69744;SDS011;57015;50.120;-5.168;2023-04-12T11:58:47;13.67;;;2.03;;
69744;SDS011;57015;50.120;-5.168;2023-04-12T12:01:13;21.73;;;2.65;;
69744;SDS011;57015;50.120;-5.168;2023-04-12T12:03:39;19.17;;;2.40;;
69744;SDS011;57015;50.120;-5.168;2023-04-12T12:06:06;12.82;;;2.13;;
69744;SDS011;57015;50.120;-5.168;2023-04-12T12:08:32;19.85;;;2.55;;
69744;SDS011;57015;50.120;-5.168;2023-04-12T12:10:57;12.27;;;2.20;;
69744;SDS011;57015;50.120;-5.168;2023-04-12T12:13:22;19.77;;;2.28;;
69744;SDS011;57015;50.120;-5.168;2023-04-12T12:15:50;17.87;;;3.07;;
69744;SDS011;57015;50.120;-5.168;2023-04-12T12:18:16;14.80;;;1.77;;
69744;SDS011;57015;50.120;-5.168;2023-04-12T12:20:51;17.50;;;2.40;;
69744;SDS011;57015;50.120;-5.168;2023-04-12T12:23:29;16.13;;;2.05;;
69744;SDS011;57015;50.120;-5.168;2023-04-12T12:25:56;22.00;;;2.67;;
69744;SDS011;57015;50.120;-5.168;2023-04-12T12:28:25;24.55;;;2.83;;
69744;SDS011;57015;50.120;-5.168;2023-04-12T12:30:54;17.33;;;2.10;;
69744;SDS011;57015;50.120;-5.168;2023-04-12T12:33:21;22.75;;;2.30;;
69744;SDS011;57015;50.120;-5.168;2023-04-12T12:35:56;16.55;;;3.00;;
69744;SDS011;57015;50.120;-5.168;2023-04-12T12:38:21;18.90;;;2.33;;
69744;SDS011;57015;50.120;-5.168;2023-04-12T12:40:47;12.23;;;2.10;;
69744;SDS011;57015;50.120;-5.168;2023-04-12T12:43:19;18.73;;;2.47;;
69744;SDS011;57015;50.120;-5.168;2023-04-12T12:45:45;16.10;;;1.90;;
69744;SDS011;57015;50.120;-5.168;2023-04-12T12:48:10;9.13;;;1.60;;
69744;SDS011;57015;50.120;-5.168;2023-04-12T12:50:37;23.27;;;2.28;;
69744;SDS011;57015;50.120;-5.168;2023-04-12T12:53:03;19.73;;;3.00;;
69744;SDS011;57015;50.120;-5.168;2023-04-12T12:55:30;19.67;;;2.13;;
69744;SDS011;57015;50.120;-5.168;2023-04-12T12:57:56;24.00;;;3.08;;
69744;SDS011;57015;50.120;-5.168;2023-04-12T13:00:22;16.67;;;1.87;;
69744;SDS011;57015;50.120;-5.168;2023-04-12T13:02:49;21.35;;;2.00;;
69744;SDS011;57015;50.120;-5.168;2023-04-12T13:05:15;24.33;;;2.53;;
69744;SDS011;57015;50.120;-5.168;2023-04-12T13:07:41;23.90;;;2.80;;
69744;SDS011;57015;50.120;-5.168;2023-04-12T13:10:08;20.85;;;2.60;;
69744;SDS011;57015;50.120;-5.168;2023-04-12T13:12:34;16.55;;;2.65;;
69744;SDS011;57015;50.120;-5.168;2023-04-12T13:14:59;16.83;;;3.00;;
69744;SDS011;57015;50.120;-5.168;2023-04-12T13:17:25;12.93;;;2.08;;
69744;SDS011;57015;50.120;-5.168;2023-04-12T13:19:51;10.60;;;1.30;;
69744;SDS011;57015;50.120;-5.168;2023-04-12T13:22:17;8.30;;;1.23;;
69744;SDS011;57015;50.120;-5.168;2023-04-12T13:24:42;14.37;;;1.20;;
69744;SDS011;57015;50.120;-5.168;2023-04-12T13:27:08;16.37;;;2.00;;
69744;SDS011;57015;50.120;-5.168;2023-04-12T13:29:34;14.25;;;1.52;;
69744;SDS011;57015;50.120;-5.168;2023-04-12T13:32:00;17.33;;;2.00;;
69744;SDS011;57015;50.120;-5.168;2023-04-12T13:34:25;16.90;;;2.10;;
69744;SDS011;57015;50.120;-5.168;2023-04-12T13:36:51;19.80;;;2.23;;
69744;SDS011;57015;50.120;-5.168;2023-04-12T13:39:16;18.03;;;2.70;;
69744;SDS011;57015;50.120;-5.168;2023-04-12T13:41:42;15.27;;;2.33;;
69744;SDS011;57015;50.120;-5.168;2023-04-12T13:44:07;21.23;;;2.73;;
69744;SDS011;57015;50.120;-5.168;2023-04-12T13:46:33;24.93;;;2.53;;
69744;SDS011;57015;50.120;-5.168;2023-04-12T13:48:58;19.93;;;3.00;;
69744;SDS011;57015;50.120;-5.168;2023-04-12T13:51:24;21.27;;;2.60;;
69744;SDS011;57015;50.120;-5.168;2023-04-12T13:53:50;40.67;;;3.30;;
69744;SDS011;57015;50.120;-5.168;2023-04-12T13:56:16;28.30;;;3.42;;
69744;SDS011;57015;50.120;-5.168;2023-04-12T13:58:42;17.93;;;2.17;;
69744;SDS011;57015;50.120;-5.168;2023-04-12T14:01:07;17.15;;;2.05;;
69744;SDS011;57015;50.120;-5.168;2023-04-12T14:03:33;17.50;;;2.00;;
69744;SDS011;57015;50.120;-5.168;2023-04-12T14:05:59;12.63;;;2.60;;
69744;SDS011;57015;50.120;-5.168;2023-04-12T14:08:28;17.98;;;3.10;;
69744;SDS011;57015;50.120;-5.168;2023-04-12T14:10:53;18.05;;;2.55;;
69744;SDS011;57015;50.120;-5.168;2023-04-12T14:13:22;20.90;;;3.23;;
69744;SDS011;57015;50.120;-5.168;2023-04-12T14:15:51;21.05;;;3.97;;
69744;SDS011;57015;50.120;-5.168;2023-04-12T14:18:17;28.88;;;4.40;;
69744;SDS011;57015;50.120;-5.168;2023-04-12T14:20:43;31.35;;;3.00;;
69744;SDS011;57015;50.120;-5.168;2023-04-12T14:23:12;23.52;;;3.75;;
69744;SDS011;57015;50.120;-5.168;2023-04-12T14:25:38;31.07;;;4.03;;
69744;SDS011;57015;50.120;-5.168;2023-04-12T14:28:04;32.45;;;4.43;;
69744;SDS011;57015;50.120;-5.168;2023-04-12T14:30:29;32.50;;;5.03;;
69744;SDS011;57015;50.120;-5.168;2023-04-12T14:32:55;27.60;;;3.97;;
69744;SDS011;57015;50.120;-5.168;2023-04-12T14:35:20;31.45;;;4.72;;
69744;SDS011;57015;50.120;-5.168;2023-04-12T14:37:46;20.70;;;3.55;;
69744;SDS011;57015;50.120;-5.168;2023-04-12T14:40:11;28.10;;;3.77;;
69744;SDS011;57015;50.120;-5.168;2023-04-12T14:42:37;34.08;;;4.13;;
69744;SDS011;57015;50.120;-5.168;2023-04-12T14:45:03;23.93;;;3.00;;
69744;SDS011;57015;50.120;-5.168;2023-04-12T14:47:30;29.60;;;3.65;;
69744;SDS011;57015;50.120;-5.168;2023-04-12T14:49:55;26.90;;;5.17;;